createdAt,value
2022-10-23T20:00:13.858Z,28.50
2022-10-23T20:02:54.462Z,29.70
2022-10-23T20:05:30.548Z,31.40
2022-10-23T20:08:02.378Z,32.70
2022-10-23T20:10:51.576Z,34.30
2022-10-23T20:13:21.911Z,30.50
2022-10-23T20:15:50.414Z,31.50
2022-10-23T20:18:18.333Z,33.80
2022-10-23T20:21:09.648Z,31.30
2022-10-23T20:23:37.371Z,31.10
2022-10-23T20:26:08.872Z,30.40
2022-10-23T20:28:36.972Z,28.50
2022-10-23T20:31:11.794Z,30.30
2022-10-23T20:33:43.486Z,28.20
2022-10-23T20:36:21.910Z,28.40
2022-10-23T20:38:49.988Z,29.00
2022-10-23T20:41:18.777Z,28.90
2022-10-23T20:43:46.984Z,29.20
2022-10-23T20:46:14.821Z,27.00
2022-10-23T20:48:44.089Z,29.20
2022-10-23T20:51:15.073Z,28.80
2022-10-23T20:53:43.695Z,28.40
2022-10-23T20:56:18.994Z,29.60
2022-10-23T20:58:46.751Z,28.30
2022-10-23T21:01:16.888Z,31.40
2022-10-23T21:03:48.948Z,30.10
2022-10-23T21:06:17.200Z,36.60
2022-10-23T21:08:49.000Z,33.20
2022-10-23T21:11:17.775Z,30.40
2022-10-23T21:13:45.611Z,33.10
2022-10-23T21:16:14.733Z,31.30
2022-10-23T21:18:46.102Z,35.40
2022-10-23T21:21:19.350Z,34.00
2022-10-23T21:23:47.960Z,34.30
2022-10-23T21:26:16.598Z,29.40
2022-10-23T21:28:56.394Z,28.10
2022-10-23T21:31:38.506Z,33.90
2022-10-23T21:34:06.338Z,27.10
2022-10-23T21:36:43.468Z,28.40
2022-10-23T21:39:21.745Z,33.00
2022-10-23T21:41:49.584Z,29.20
2022-10-23T21:44:17.205Z,30.90
2022-10-23T21:46:45.833Z,29.70
2022-10-23T21:49:13.570Z,42.40
2022-10-23T21:51:41.303Z,32.10
2022-10-23T21:54:11.477Z,27.60
2022-10-23T21:56:41.896Z,36.40
2022-10-23T21:59:13.397Z,29.10
2022-10-23T22:01:43.243Z,28.40
2022-10-23T22:04:14.299Z,27.50
2022-10-23T22:06:43.776Z,29.80
2022-10-23T22:09:12.955Z,31.90
2022-10-23T22:11:40.681Z,31.00
2022-10-23T22:16:42.731Z,28.20
2022-10-23T22:19:11.083Z,27.30
2022-10-23T22:21:38.873Z,34.90
2022-10-23T22:24:06.843Z,39.40
2022-10-23T22:26:36.103Z,31.30
2022-10-23T22:29:07.530Z,31.90
2022-10-23T22:31:35.757Z,32.50
2022-10-23T22:34:13.381Z,27.90
2022-10-23T22:36:54.761Z,25.60
2022-10-23T22:39:22.858Z,29.20
2022-10-23T22:41:50.738Z,22.00
2022-10-23T22:44:19.155Z,21.90
2022-10-23T22:46:46.980Z,22.50
2022-10-23T22:49:14.756Z,24.80
2022-10-23T22:51:46.349Z,24.50
2022-10-23T22:54:14.166Z,23.50
2022-10-23T22:56:42.534Z,20.50
2022-10-23T22:59:10.331Z,21.30
2022-10-23T23:01:40.376Z,19.80
2022-10-23T23:04:19.826Z,21.00
2022-10-23T23:06:54.102Z,24.50
2022-10-23T23:09:22.005Z,25.80
2022-10-23T23:11:52.995Z,27.20
2022-10-23T23:14:23.733Z,28.40
2022-10-23T23:16:53.227Z,23.70
2022-10-23T23:19:23.093Z,21.30
2022-10-23T23:21:50.888Z,19.90
2022-10-23T23:24:18.617Z,21.30
2022-10-23T23:26:46.434Z,20.50
2022-10-23T23:29:14.282Z,20.20
2022-10-23T23:31:48.931Z,21.00
2022-10-23T23:34:23.309Z,20.20
2022-10-23T23:36:57.319Z,20.30
2022-10-23T23:39:26.254Z,21.00
2022-10-23T23:41:54.195Z,22.00
2022-10-23T23:44:21.917Z,22.10
2022-10-23T23:46:49.719Z,23.00
2022-10-23T23:49:17.441Z,21.50
2022-10-23T23:51:45.189Z,23.00
2022-10-23T23:54:13.011Z,23.50
2022-10-23T23:56:40.773Z,23.10
2022-10-23T23:59:08.564Z,23.40
